Time;durP1;ratioP1;P1;durP2;ratioP2;P2;SDS_P1;SDS_P2;PMS_P1;PMS_P2;Temp;Humidity;BMP_temperature;BMP_pressure;BME280_temperature;BME280_humidity;BME280_pressure;Samples;Min_cycle;Max_cycle;Signal;HPM_P1;HPM_P2
2021/11/08 00:01:12;;;;;;;9.27;3.33;;;8.20;81.10;;;;;;5111882;28;20030;-71
2021/11/08 00:03:41;;;;;;;10.77;3.38;;;8.20;81.00;;;;;;5105296;28;20051;-72
2021/11/08 00:06:07;;;;;;;10.55;3.45;;;8.20;81.00;;;;;;5096741;28;20446;-71
2021/11/08 00:08:35;;;;;;;14.02;3.13;;;8.20;80.90;;;;;;5083012;28;20035;-71
2021/11/08 00:11:01;;;;;;;14.07;4.55;;;8.10;80.80;;;;;;5108543;28;20038;-73
2021/11/08 00:13:28;;;;;;;10.15;3.55;;;8.10;81.00;;;;;;5113343;28;20024;-73
2021/11/08 00:20:48;;;;;;;11.57;3.30;;;8.00;80.90;;;;;;5108530;28;20028;-73
2021/11/08 00:23:14;;;;;;;16.70;3.20;;;8.00;80.90;;;;;;5095016;28;20019;-73
2021/11/08 00:25:42;;;;;;;11.80;3.50;;;8.00;80.80;;;;;;5090479;28;20422;-73
2021/11/08 00:28:11;;;;;;;14.73;3.85;;;8.00;80.70;;;;;;5112995;28;20106;-73
2021/11/08 00:30:37;;;;;;;13.48;3.33;;;7.90;80.70;;;;;;5107599;28;20084;-71
2021/11/08 00:33:14;;;;;;;13.25;3.42;;;7.90;80.70;;;;;;5094915;28;20032;-71
2021/11/08 00:35:41;;;;;;;10.57;3.00;;;7.90;80.70;;;;;;5096957;28;20019;-71
2021/11/08 00:38:08;;;;;;;9.27;3.45;;;7.90;80.70;;;;;;5106217;28;20100;-72
2021/11/08 00:40:35;;;;;;;12.73;3.17;;;7.80;80.60;;;;;;5106994;28;20358;-73
2021/11/08 00:43:00;;;;;;;9.77;3.42;;;7.90;80.80;;;;;;5109190;28;20055;-73
2021/11/08 00:45:26;;;;;;;11.73;3.08;;;7.80;80.70;;;;;;5085672;28;20067;-73
2021/11/08 00:47:53;;;;;;;12.55;3.30;;;7.80;80.70;;;;;;5111258;28;20490;-73
2021/11/08 00:50:22;;;;;;;9.65;2.97;;;7.80;80.70;;;;;;5103908;28;20103;-72
2021/11/08 00:52:48;;;;;;;9.52;3.38;;;7.80;80.70;;;;;;5111999;28;20070;-72
2021/11/08 00:55:15;;;;;;;15.05;3.55;;;7.80;80.50;;;;;;5103775;28;20040;-72
2021/11/08 00:57:44;;;;;;;10.50;3.10;;;7.70;80.30;;;;;;5112661;28;20020;-72
2021/11/08 01:00:13;;;;;;;18.70;3.55;;;7.70;80.20;;;;;;5098686;28;20023;-72
2021/11/08 01:02:39;;;;;;;11.15;3.20;;;7.70;80.30;;;;;;5110856;28;20363;-73
2021/11/08 01:05:08;;;;;;;13.95;3.35;;;7.70;80.40;;;;;;5107073;28;20032;-73
2021/11/08 01:07:34;;;;;;;11.63;3.65;;;7.60;80.20;;;;;;5094408;27;20155;-73
2021/11/08 01:10:01;;;;;;;16.40;3.35;;;7.60;80.10;;;;;;5101761;28;20028;-73
2021/11/08 01:12:27;;;;;;;9.25;2.83;;;7.60;80.20;;;;;;5110669;28;20042;-73
2021/11/08 01:14:54;;;;;;;14.57;2.95;;;7.60;80.10;;;;;;5107074;28;20032;-73
2021/11/08 01:17:21;;;;;;;9.50;2.60;;;7.60;80.10;;;;;;5092571;28;20020;-73
2021/11/08 01:19:47;;;;;;;7.88;3.05;;;7.50;80.00;;;;;;5105030;28;20035;-73
2021/11/08 01:22:18;;;;;;;8.55;2.85;;;7.50;80.00;;;;;;5112476;28;20092;-72
2021/11/08 01:24:51;;;;;;;8.27;2.90;;;7.50;79.70;;;;;;5088710;28;20024;-72
2021/11/08 01:27:24;;;;;;;13.40;3.13;;;7.50;79.80;;;;;;5111694;28;20028;-72
2021/11/08 01:29:50;;;;;;;;;;;7.40;79.70;;;;;;5110819;28;20050;-72
2021/11/08 01:32:15;;;;;;;9.85;2.47;;;7.40;79.70;;;;;;5109433;28;20685;-72
2021/11/08 01:34:41;;;;;;;8.65;2.60;;;7.30;79.80;;;;;;5087097;28;20080;-73
2021/11/08 01:37:10;;;;;;;10.55;2.92;;;7.30;79.90;;;;;;5077994;28;20020;-73
2021/11/08 01:39:37;;;;;;;11.98;2.60;;;7.30;80.00;;;;;;5087668;28;20385;-73
2021/11/08 01:42:09;;;;;;;9.65;2.92;;;7.30;80.20;;;;;;5111002;28;20031;-72
2021/11/08 01:44:35;;;;;;;9.73;2.60;;;7.30;80.30;;;;;;5109350;28;20028;-72
2021/11/08 01:47:02;;;;;;;8.52;3.53;;;7.30;80.40;;;;;;5107122;28;20089;-72
2021/11/08 01:49:28;;;;;;;8.52;3.13;;;7.30;80.50;;;;;;5082838;28;20039;-72
2021/11/08 01:51:56;;;;;;;14.55;3.10;;;7.30;80.50;;;;;;5108993;28;20407;-72
2021/11/08 01:54:23;;;;;;;14.18;2.80;;;7.30;80.60;;;;;;5092843;28;20436;-72
2021/11/08 01:56:51;;;;;;;11.90;2.78;;;7.30;80.60;;;;;;5110340;28;20019;-73
2021/11/08 01:59:16;;;;;;;11.98;2.30;;;7.30;80.60;;;;;;5103513;27;20027;-73
2021/11/08 02:01:42;;;;;;;8.88;3.15;;;7.30;80.50;;;;;;5104287;28;20574;-73
2021/11/08 02:04:08;;;;;;;9.50;2.72;;;7.20;80.40;;;;;;5075812;28;20027;-73
2021/11/08 02:06:34;;;;;;;7.70;2.30;;;7.20;80.40;;;;;;5109738;28;20031;-73
2021/11/08 02:08:59;;;;;;;7.78;2.40;;;7.20;80.30;;;;;;5105414;27;20040;-72
2021/11/08 02:11:25;;;;;;;8.93;2.65;;;7.20;80.30;;;;;;5088287;28;20032;-74
2021/11/08 02:13:53;;;;;;;9.00;2.50;;;7.20;80.20;;;;;;5086644;28;20039;-74
2021/11/08 02:16:19;;;;;;;10.90;2.42;;;7.10;80.20;;;;;;5088594;28;20032;-74
2021/11/08 02:18:46;;;;;;;9.85;2.47;;;7.20;80.10;;;;;;5112522;27;20028;-74
2021/11/08 02:21:13;;;;;;;9.38;2.75;;;7.10;80.00;;;;;;5109251;27;20022;-74
2021/11/08 02:23:42;;;;;;;8.93;2.92;;;7.10;80.00;;;;;;5104022;27;20427;-72
2021/11/08 02:26:16;;;;;;;6.70;2.25;;;7.10;79.80;;;;;;5085538;28;20023;-71
2021/11/08 02:28:46;;;;;;;8.60;2.50;;;7.10;79.90;;;;;;5110116;28;20519;-73
2021/11/08 02:31:22;;;;;;;9.48;2.22;;;7.00;79.70;;;;;;5111049;27;20164;-72
2021/11/08 02:33:51;;;;;;;11.02;2.65;;;7.00;79.70;;;;;;5110314;28;20038;-72
2021/11/08 02:36:21;;;;;;;11.13;2.70;;;7.00;79.70;;;;;;5108467;28;20615;-73
2021/11/08 02:38:50;;;;;;;10.25;2.75;;;6.90;79.70;;;;;;5091825;28;20016;-73
2021/11/08 02:41:19;;;;;;;9.23;2.10;;;6.90;79.70;;;;;;5109867;28;20019;-71
2021/11/08 02:43:47;;;;;;;7.13;2.65;;;6.90;79.70;;;;;;5110841;28;20149;-72
2021/11/08 02:46:16;;;;;;;12.45;2.42;;;6.90;79.60;;;;;;5091582;28;20500;-73
2021/11/08 02:48:49;;;;;;;10.70;2.47;;;6.90;79.60;;;;;;5093123;28;20050;-73
2021/11/08 02:51:19;;;;;;;10.32;2.60;;;6.80;79.60;;;;;;5081786;28;20031;-73
2021/11/08 02:53:49;;;;;;;9.27;2.33;;;6.80;79.60;;;;;;5093219;28;20035;-73
2021/11/08 02:56:15;;;;;;;11.63;2.17;;;6.80;79.60;;;;;;5071771;28;20078;-73
2021/11/08 02:58:44;;;;;;;7.82;2.22;;;6.80;79.70;;;;;;5086504;28;20027;-73
2021/11/08 03:01:12;;;;;;;8.07;2.65;;;6.80;79.70;;;;;;5098950;28;20019;-73
2021/11/08 03:03:44;;;;;;;6.07;1.98;;;6.70;79.60;;;;;;5110414;28;20038;-72
2021/11/08 03:08:57;;;;;;;10.07;2.17;;;6.70;79.70;;;;;;5104442;28;19915;-71
2021/11/08 03:11:23;;;;;;;12.32;2.08;;;6.60;79.70;;;;;;5072803;28;20035;-73
2021/11/08 03:13:58;;;;;;;9.13;2.50;;;6.60;79.90;;;;;;5102565;28;20478;-72
2021/11/08 03:22:15;;;;;;;6.25;2.40;;;6.60;80.10;;;;;;5073893;28;20040;-73
2021/11/08 03:24:50;;;;;;;8.00;2.58;;;6.60;80.20;;;;;;5089299;28;20111;-72
2021/11/08 03:30:10;;;;;;;8.40;2.70;;;6.50;80.20;;;;;;5096842;28;20087;-72
2021/11/08 03:32:37;;;;;;;10.00;2.78;;;6.60;80.20;;;;;;5099119;28;20128;-73
2021/11/08 03:35:11;;;;;;;15.80;3.03;;;6.50;80.20;;;;;;5091049;28;20088;-73
2021/11/08 03:37:38;;;;;;;12.55;2.83;;;6.50;80.20;;;;;;5090258;28;20375;-73
2021/11/08 03:40:08;;;;;;;17.33;3.05;;;6.50;80.10;;;;;;5095081;28;20521;-73
2021/11/08 03:42:34;;;;;;;9.77;3.20;;;6.50;80.30;;;;;;5107955;28;20377;-73
2021/11/08 03:45:00;;;;;;;11.82;3.03;;;6.50;80.40;;;;;;5108863;28;20024;-73
2021/11/08 03:47:30;;;;;;;13.43;3.70;;;6.50;80.50;;;;;;5080088;28;20114;-72
2021/11/08 03:49:56;;;;;;;9.00;3.22;;;6.50;80.70;;;;;;5092442;28;20387;-73
2021/11/08 03:52:21;;;;;;;9.82;3.90;;;6.40;80.80;;;;;;5081570;28;20020;-73
2021/11/08 03:54:47;;;;;;;10.95;3.25;;;6.50;80.90;;;;;;5103016;28;20511;-73
2021/11/08 03:57:13;;;;;;;12.00;3.78;;;6.50;80.90;;;;;;5090763;28;20089;-72
2021/11/08 03:59:39;;;;;;;11.95;4.10;;;6.50;80.90;;;;;;5082916;28;20081;-71
2021/11/08 04:02:05;;;;;;;11.00;3.80;;;6.50;80.90;;;;;;5087196;28;20196;-72
2021/11/08 04:04:34;;;;;;;10.48;3.22;;;6.50;80.90;;;;;;5109299;28;20059;-73
2021/11/08 04:07:01;;;;;;;13.02;3.53;;;6.40;80.70;;;;;;5088112;28;20108;-72
2021/11/08 04:09:29;;;;;;;10.43;3.60;;;6.40;80.70;;;;;;5106818;28;20541;-72
2021/11/08 04:11:55;;;;;;;12.20;4.03;;;6.40;80.90;;;;;;5103115;28;20142;-72
2021/11/08 04:14:23;;;;;;;11.93;3.47;;;6.40;81.20;;;;;;5107287;28;20110;-72
2021/11/08 04:16:49;;;;;;;15.65;4.13;;;6.40;81.40;;;;;;5090844;28;20042;-72
2021/11/08 04:19:15;;;;;;;14.00;4.53;;;6.40;81.50;;;;;;5104970;28;20433;-73
2021/11/08 04:21:41;;;;;;;10.15;3.70;;;6.40;81.50;;;;;;5089675;28;20110;-73
2021/11/08 04:24:08;;;;;;;9.55;3.90;;;6.40;81.50;;;;;;5087831;28;20131;-73
2021/11/08 04:26:35;;;;;;;14.38;3.80;;;6.40;81.60;;;;;;5070657;28;20253;-72
2021/11/08 04:29:03;;;;;;;13.57;3.58;;;6.40;81.70;;;;;;5070846;28;20044;-72
2021/11/08 04:31:33;;;;;;;12.82;4.80;;;6.40;81.70;;;;;;5074307;28;20099;-73
2021/11/08 04:34:44;;;;;;;10.05;4.00;;;6.40;81.70;;;;;;5107869;28;20074;-73
2021/11/08 04:55:30;;;;;;;9.95;4.00;;;6.40;82.30;;;;;;5076842;28;20052;-71
2021/11/08 05:30:38;;;;;;;10.70;4.97;;;6.40;83.10;;;;;;5112535;28;20476;-72
2021/11/08 05:33:04;;;;;;;10.15;4.50;;;6.40;83.00;;;;;;5088964;28;20035;-72
2021/11/08 05:35:33;;;;;;;12.18;4.75;;;6.50;83.10;;;;;;5072980;28;20028;-72
2021/11/08 05:37:59;;;;;;;16.15;4.55;;;6.40;83.00;;;;;;5092787;28;20016;-72
2021/11/08 05:40:36;;;;;;;7.75;3.95;;;6.40;82.90;;;;;;5072986;28;20024;-73
2021/11/08 05:43:03;;;;;;;10.48;4.00;;;6.40;82.90;;;;;;5091826;28;20474;-74
2021/11/08 05:45:33;;;;;;;11.15;4.53;;;6.40;82.70;;;;;;5072808;28;20074;-72
2021/11/08 05:48:01;;;;;;;11.15;4.43;;;6.40;82.70;;;;;;5056614;28;20032;-72
2021/11/08 05:50:29;;;;;;;10.23;4.10;;;6.30;82.60;;;;;;5087297;28;20031;-74
2021/11/08 05:52:55;;;;;;;13.57;4.60;;;6.30;82.60;;;;;;5105679;28;20040;-72
2021/11/08 06:02:04;;;;;;;11.38;5.78;;;6.30;82.40;;;;;;5087763;28;20096;-74
2021/11/08 06:50:18;;;;;;;15.25;5.93;;;6.30;84.30;;;;;;5082843;28;20047;-72
2021/11/08 06:52:49;;;;;;;16.02;5.75;;;6.30;84.50;;;;;;5080808;28;20387;-71
2021/11/08 06:55:15;;;;;;;14.90;5.53;;;6.40;84.70;;;;;;5095824;28;20574;-72
2021/11/08 06:57:49;;;;;;;16.30;5.70;;;6.40;84.70;;;;;;5087338;28;20115;-72
2021/11/08 07:00:18;;;;;;;14.65;5.25;;;6.40;85.00;;;;;;5064970;28;20024;-72
2021/11/08 07:02:44;;;;;;;29.77;6.38;;;6.40;85.10;;;;;;5109572;28;20015;-74
2021/11/08 07:05:10;;;;;;;14.52;5.55;;;6.50;85.90;;;;;;5094109;28;20023;-74
2021/11/08 07:07:36;;;;;;;17.95;5.63;;;6.50;86.00;;;;;;5103374;28;20032;-72
2021/11/08 07:10:05;;;;;;;14.63;5.60;;;6.50;86.00;;;;;;5102473;28;20035;-72
2021/11/08 07:12:30;;;;;;;11.15;5.15;;;6.50;85.90;;;;;;5109640;28;20092;-73
2021/11/08 07:14:56;;;;;;;15.00;5.45;;;6.50;85.80;;;;;;5080021;28;20052;-74
2021/11/08 07:17:22;;;;;;;19.40;6.43;;;6.60;85.80;;;;;;5089475;28;20032;-73
2021/11/08 07:19:48;;;;;;;18.52;5.40;;;6.60;86.00;;;;;;5095907;28;20019;-71
2021/11/08 07:22:14;;;;;;;13.75;5.78;;;6.60;86.10;;;;;;5090355;28;20123;-73
2021/11/08 07:24:40;;;;;;;16.55;6.13;;;6.70;86.20;;;;;;5087974;28;20031;-74
2021/11/08 07:27:06;;;;;;;15.20;5.53;;;6.70;86.30;;;;;;5110348;28;20112;-74
2021/11/08 07:29:36;;;;;;;14.13;5.53;;;6.80;86.40;;;;;;5104423;28;20027;-72
2021/11/08 07:32:02;;;;;;;14.90;5.63;;;6.80;86.60;;;;;;5072176;28;20039;-72
2021/11/08 07:34:28;;;;;;;19.83;5.70;;;6.80;86.80;;;;;;5089357;28;20029;-74
2021/11/08 07:36:54;;;;;;;19.08;6.15;;;6.90;87.10;;;;;;5080434;28;20073;-74
2021/11/08 07:39:20;;;;;;;17.55;6.40;;;6.90;87.40;;;;;;5117787;28;20085;-75
2021/11/08 07:41:46;;;;;;;19.58;6.28;;;7.00;87.50;;;;;;5107315;28;20482;-74
2021/11/08 07:44:12;;;;;;;24.15;7.55;;;7.00;87.50;;;;;;5089379;28;20028;-72
2021/11/08 07:46:37;;;;;;;24.10;6.53;;;7.00;87.70;;;;;;5087212;28;20036;-72
2021/11/08 07:49:04;;;;;;;17.90;6.03;;;7.10;87.80;;;;;;5103608;28;20027;-72
2021/11/08 07:51:30;;;;;;;20.67;6.13;;;7.10;88.20;;;;;;5109080;28;20106;-72
2021/11/08 07:53:56;;;;;;;19.00;6.03;;;7.10;88.20;;;;;;5108901;28;20096;-72
2021/11/08 07:56:21;;;;;;;21.80;6.13;;;7.20;88.40;;;;;;5091984;28;20044;-74
2021/11/08 07:58:48;;;;;;;24.27;6.22;;;7.20;88.50;;;;;;5118137;28;20051;-72
2021/11/08 08:01:15;;;;;;;25.77;6.18;;;7.20;88.70;;;;;;5098453;28;20500;-75
2021/11/08 08:03:40;;;;;;;21.13;6.78;;;7.20;88.70;;;;;;5089029;28;20020;-75
2021/11/08 08:06:06;;;;;;;24.25;5.45;;;7.20;88.70;;;;;;5113281;27;20035;-75
2021/11/08 08:08:34;;;;;;;21.38;6.38;;;7.30;88.90;;;;;;5096015;28;20536;-71
2021/11/08 08:11:00;;;;;;;22.85;6.72;;;7.30;89.00;;;;;;5114241;27;20035;-74
2021/11/08 08:13:28;;;;;;;22.48;6.03;;;7.30;89.10;;;;;;5114141;27;20027;-72
2021/11/08 08:16:00;;;;;;;16.38;5.82;;;7.40;89.10;;;;;;5112000;27;20146;-72
2021/11/08 08:18:28;;;;;;;22.83;6.68;;;7.40;89.20;;;;;;5090929;27;20031;-72
2021/11/08 08:20:55;;;;;;;25.67;6.55;;;7.40;89.40;;;;;;5094538;27;20071;-72
2021/11/08 08:23:21;;;;;;;21.60;6.45;;;7.40;90.00;;;;;;5089429;27;20077;-74
2021/11/08 08:25:47;;;;;;;22.58;6.25;;;7.40;89.60;;;;;;5115651;27;20032;-75
2021/11/08 08:28:13;;;;;;;22.60;6.65;;;7.50;89.70;;;;;;5089480;28;20066;-72
2021/11/08 08:30:38;;;;;;;18.20;7.38;;;7.50;89.70;;;;;;5109195;27;20067;-74
2021/11/08 08:33:04;;;;;;;22.58;7.03;;;7.50;90.00;;;;;;5092082;28;20035;-72
2021/11/08 08:35:36;;;;;;;28.23;7.53;;;7.60;89.90;;;;;;5095458;27;20066;-75
2021/11/08 08:38:02;;;;;;;21.23;7.82;;;7.60;89.90;;;;;;5116984;27;20034;-75
2021/11/08 08:40:28;;;;;;;27.20;7.20;;;7.60;89.90;;;;;;5119048;27;20024;-72
2021/11/08 08:42:54;;;;;;;22.27;7.47;;;7.70;90.00;;;;;;5118687;27;20026;-75
2021/11/08 08:45:20;;;;;;;31.15;8.63;;;7.70;89.90;;;;;;5115465;27;20031;-75
2021/11/08 08:47:46;;;;;;;20.83;7.85;;;7.70;90.00;;;;;;5104900;27;20486;-76
2021/11/08 08:50:12;;;;;;;21.92;7.22;;;7.80;90.00;;;;;;5095532;28;20028;-75
2021/11/08 08:52:38;;;;;;;25.58;7.75;;;7.80;90.20;;;;;;5114002;27;20062;-73
2021/11/08 08:55:05;;;;;;;25.15;8.07;;;7.80;90.00;;;;;;5114383;27;20035;-72
2021/11/08 08:57:31;;;;;;;28.02;7.65;;;7.90;90.10;;;;;;5112082;27;20032;-72
2021/11/08 08:59:56;;;;;;;21.25;7.03;;;7.90;90.10;;;;;;5100542;27;20019;-72
2021/11/08 09:02:22;;;;;;;28.38;9.13;;;8.00;90.10;;;;;;5090927;27;20054;-75
2021/11/08 09:04:48;;;;;;;19.65;6.68;;;8.00;90.00;;;;;;5098671;27;20520;-72
2021/11/08 09:07:15;;;;;;;23.85;8.30;;;8.10;90.00;;;;;;5097826;27;20440;-72
2021/11/08 09:09:41;;;;;;;19.30;6.97;;;8.10;90.00;;;;;;5101988;28;20035;-72
2021/11/08 09:12:08;;;;;;;21.70;7.55;;;8.10;90.30;;;;;;5084365;28;20040;-73
2021/11/08 09:14:34;;;;;;;26.95;8.63;;;8.10;90.00;;;;;;5107072;28;20793;-72
2021/11/08 09:17:07;;;;;;;28.55;8.40;;;8.20;90.10;;;;;;5104945;28;20036;-72
2021/11/08 09:19:33;;;;;;;26.30;7.40;;;8.20;90.20;;;;;;5106079;28;20028;-72
2021/11/08 09:22:00;;;;;;;26.30;7.32;;;8.30;90.10;;;;;;5096862;28;20019;-72
2021/11/08 09:24:26;;;;;;;28.00;7.55;;;8.40;90.20;;;;;;5088310;28;20108;-73
2021/11/08 09:26:52;;;;;;;28.42;8.23;;;8.50;90.20;;;;;;5087755;28;20514;-72
2021/11/08 09:29:18;;;;;;;18.05;7.47;;;8.70;90.10;;;;;;5090205;28;20385;-72
2021/11/08 09:31:45;;;;;;;23.40;8.82;;;8.80;90.00;;;;;;5098209;28;20090;-72
2021/11/08 09:34:14;;;;;;;27.88;7.65;;;8.80;89.90;;;;;;5104771;28;20028;-72
2021/11/08 09:36:40;;;;;;;27.63;7.95;;;8.80;89.70;;;;;;5103724;28;20049;-72
2021/11/08 09:39:19;;;;;;;23.58;7.78;;;8.80;89.80;;;;;;5100021;28;20031;-72
2021/11/08 09:41:45;;;;;;;23.05;7.60;;;8.80;89.80;;;;;;5109557;27;20402;-72
2021/11/08 09:44:12;;;;;;;20.17;7.25;;;8.80;89.80;;;;;;5106156;28;20012;-72
2021/11/08 09:46:38;;;;;;;26.33;7.07;;;8.80;89.80;;;;;;5109383;28;20063;-75
2021/11/08 09:49:07;;;;;;;27.35;7.32;;;8.80;89.90;;;;;;5094811;28;20160;-75
2021/11/08 09:51:42;;;;;;;21.48;6.88;;;8.80;90.00;;;;;;5105616;27;20067;-75
2021/11/08 09:54:10;;;;;;;25.98;8.32;;;8.80;90.00;;;;;;5103155;28;20024;-72
2021/11/08 09:56:38;;;;;;;18.13;7.18;;;8.80;89.90;;;;;;5103443;28;20787;-72
2021/11/08 09:59:04;;;;;;;17.48;5.93;;;8.80;89.90;;;;;;5103908;28;20603;-76
2021/11/08 10:01:33;;;;;;;25.88;7.15;;;8.80;89.80;;;;;;5079038;28;20028;-76
2021/11/08 10:03:59;;;;;;;23.83;7.45;;;8.80;90.00;;;;;;5101441;28;20465;-72
2021/11/08 10:06:26;;;;;;;22.02;8.07;;;8.80;89.90;;;;;;5102718;28;20112;-72
2021/11/08 10:08:53;;;;;;;25.33;7.70;;;8.80;90.00;;;;;;5101261;28;20040;-72
2021/11/08 10:11:19;;;;;;;22.83;7.25;;;8.90;90.00;;;;;;5106162;28;20546;-72
2021/11/08 10:13:48;;;;;;;25.77;7.32;;;8.90;90.00;;;;;;5105276;28;20060;-72
2021/11/08 10:16:19;;;;;;;22.48;7.20;;;9.00;90.00;;;;;;5099146;28;20122;-72
2021/11/08 10:18:52;;;;;;;25.83;8.20;;;9.00;89.80;;;;;;5103070;28;20028;-73
2021/11/08 10:21:21;;;;;;;18.27;6.50;;;9.10;89.90;;;;;;5106309;28;20427;-72
2021/11/08 10:23:49;;;;;;;24.05;8.32;;;9.20;89.70;;;;;;5098952;28;20024;-75
2021/11/08 10:26:21;;;;;;;21.85;7.18;;;9.40;89.60;;;;;;5078375;28;20501;-76
2021/11/08 10:28:59;;;;;;;22.10;6.55;;;9.40;89.20;;;;;;5099815;28;20030;-72
2021/11/08 10:31:30;;;;;;;22.67;6.45;;;9.50;89.10;;;;;;5099898;28;20035;-72
2021/11/08 10:33:58;;;;;;;18.38;5.78;;;9.60;89.20;;;;;;5105366;28;20055;-72
2021/11/08 10:36:25;;;;;;;26.00;7.25;;;9.60;89.00;;;;;;5095705;28;20050;-72
2021/11/08 10:38:54;;;;;;;24.42;7.10;;;9.60;88.90;;;;;;5099477;28;20086;-72
2021/11/08 10:41:31;;;;;;;19.00;5.45;;;9.70;88.90;;;;;;5097435;28;20027;-72
2021/11/08 10:44:11;;;;;;;26.70;7.03;;;9.70;88.70;;;;;;5101305;27;20023;-72
2021/11/08 10:46:43;;;;;;;21.83;6.47;;;9.70;88.50;;;;;;5101279;27;20047;-72
2021/11/08 10:49:13;;;;;;;21.00;5.82;;;9.80;88.70;;;;;;5079435;28;20028;-72
2021/11/08 10:51:41;;;;;;;24.02;6.63;;;9.90;88.50;;;;;;5095563;28;20027;-72
2021/11/08 10:54:54;;;;;;;20.60;5.65;;;10.10;88.00;;;;;;5092150;28;20024;-72
2021/11/08 10:57:23;;;;;;;17.83;4.95;;;10.30;88.00;;;;;;5005660;28;20052;-72
2021/11/08 10:59:56;;;;;;;21.67;5.57;;;10.70;88.10;;;;;;5089095;28;20748;-72
2021/11/08 11:02:25;;;;;;;18.08;5.88;;;11.00;87.20;;;;;;5083930;28;20035;-72
2021/11/08 11:04:59;;;;;;;19.63;4.60;;;11.40;87.30;;;;;;5097970;28;20023;-72
2021/11/08 11:07:27;;;;;;;18.15;4.85;;;12.00;85.50;;;;;;5101204;28;20035;-72
2021/11/08 11:10:18;;;;;;;17.58;4.55;;;12.60;84.40;;;;;;5097607;28;20092;-75
2021/11/08 11:12:49;;;;;;;13.52;4.13;;;13.30;82.60;;;;;;5096885;28;20047;-76
2021/11/08 11:15:20;;;;;;;18.92;5.22;;;14.00;80.00;;;;;;5080260;28;20387;-75
2021/11/08 11:17:50;;;;;;;15.45;4.43;;;14.30;78.10;;;;;;5106877;28;20031;-75
2021/11/08 11:20:20;;;;;;;18.98;4.80;;;14.80;74.80;;;;;;5078992;28;20016;-75
2021/11/08 11:23:08;;;;;;;13.52;4.13;;;15.50;73.40;;;;;;5109312;28;20530;-75
2021/11/08 11:25:38;;;;;;;14.32;4.40;;;16.40;71.20;;;;;;5102178;28;20035;-75
2021/11/08 11:28:06;;;;;;;15.43;3.65;;;17.30;67.20;;;;;;5090379;28;20160;-71
2021/11/08 11:30:33;;;;;;;15.30;4.78;;;17.50;66.30;;;;;;5109091;28;20088;-70
2021/11/08 11:33:08;;;;;;;17.83;4.72;;;17.30;65.10;;;;;;5100617;28;20030;-71
2021/11/08 11:35:45;;;;;;;13.40;4.70;;;17.30;64.10;;;;;;5099061;28;20035;-71
2021/11/08 11:38:23;;;;;;;13.48;4.03;;;17.70;64.00;;;;;;5091090;28;20012;-71
2021/11/08 11:41:06;;;;;;;15.63;4.57;;;18.70;60.30;;;;;;5100302;28;20016;-72
2021/11/08 11:43:39;;;;;;;16.55;4.13;;;19.50;57.20;;;;;;5113671;28;20335;-75
2021/11/08 11:46:07;;;;;;;13.80;4.43;;;20.10;55.80;;;;;;5113089;28;20034;-76
2021/11/08 11:48:35;;;;;;;12.27;3.35;;;21.00;53.90;;;;;;5113757;28;20034;-76
2021/11/08 11:51:01;;;;;;;13.00;3.58;;;21.70;52.50;;;;;;5102610;28;20062;-72
2021/11/08 11:55:13;;;;;;;13.60;3.80;;;22.70;50.20;;;;;;5126224;27;20138;-75
2021/11/08 11:57:40;;;;;;;10.82;3.35;;;22.40;49.00;;;;;;5102553;28;20021;-76
2021/11/08 12:00:07;;;;;;;13.98;3.75;;;21.30;50.60;;;;;;5078435;28;20410;-76
2021/11/08 12:02:33;;;;;;;13.68;3.83;;;20.00;52.90;;;;;;5080402;28;20032;-75
2021/11/08 12:04:58;;;;;;;15.90;3.58;;;18.90;55.40;;;;;;5096440;28;20038;-76
2021/11/08 12:07:25;;;;;;;14.20;3.47;;;18.10;57.80;;;;;;5075721;28;20025;-71
2021/11/08 12:09:51;;;;;;;13.23;3.92;;;17.30;59.10;;;;;;5083721;28;20372;-71
2021/11/08 12:12:26;;;;;;;11.05;3.38;;;16.70;61.10;;;;;;5076374;28;20375;-75
2021/11/08 12:15:09;;;;;;;14.40;4.15;;;16.20;63.40;;;;;;5109171;28;20081;-75
2021/11/08 12:17:41;;;;;;;21.30;5.25;;;15.80;63.70;;;;;;5104230;28;20071;-75
2021/11/08 12:20:10;;;;;;;13.57;4.10;;;15.40;64.60;;;;;;5113942;28;20032;-75
2021/11/08 12:22:37;;;;;;;17.63;4.90;;;15.20;65.90;;;;;;5118971;28;20023;-75
2021/11/08 12:25:16;;;;;;;14.27;4.13;;;14.90;67.20;;;;;;5086374;28;21098;-75
2021/11/08 12:27:50;;;;;;;17.30;4.57;;;14.60;67.70;;;;;;5112003;28;20081;-74
2021/11/08 12:30:21;;;;;;;18.50;4.30;;;14.30;68.50;;;;;;5092251;28;20028;-75
2021/11/08 12:32:58;;;;;;;20.50;4.63;;;14.10;69.30;;;;;;5111977;28;20032;-75
2021/11/08 12:35:30;;;;;;;14.35;3.63;;;14.00;69.80;;;;;;5100164;28;20027;-70
2021/11/08 12:37:56;;;;;;;20.38;4.95;;;13.90;69.80;;;;;;5109223;28;20027;-74
2021/11/08 12:40:28;;;;;;;14.48;4.53;;;13.80;70.10;;;;;;5111159;28;20478;-74
2021/11/08 12:42:55;;;;;;;16.00;4.50;;;13.70;71.00;;;;;;5093682;28;20022;-76
2021/11/08 12:45:28;;;;;;;14.25;3.90;;;13.70;71.30;;;;;;5112213;28;20108;-75
2021/11/08 12:48:10;;;;;;;16.90;3.97;;;13.70;71.30;;;;;;5105143;28;20494;-75
2021/11/08 12:50:48;;;;;;;18.38;4.05;;;13.70;71.90;;;;;;5099550;28;20036;-75
2021/11/08 12:53:21;;;;;;;13.23;3.50;;;13.70;71.30;;;;;;5077247;28;20131;-75
2021/11/08 12:55:47;;;;;;;11.40;3.63;;;13.70;70.50;;;;;;5070404;28;20032;-75
2021/11/08 12:58:13;;;;;;;17.98;3.63;;;13.80;70.70;;;;;;5110419;28;20028;-75
2021/11/08 13:00:43;;;;;;;17.35;3.75;;;13.80;70.90;;;;;;5081643;28;20399;-75
2021/11/08 13:03:15;;;;;;;17.55;4.03;;;13.80;71.00;;;;;;5076962;28;20032;-76
2021/11/08 13:05:48;;;;;;;13.88;3.40;;;13.90;70.00;;;;;;5104447;28;20036;-75
2021/11/08 13:08:23;;;;;;;15.80;3.30;;;14.00;69.40;;;;;;5057263;28;20388;-75
2021/11/08 13:11:10;;;;;;;13.65;2.97;;;14.10;69.50;;;;;;5060220;28;20544;-75
2021/11/08 13:13:37;;;;;;;17.50;3.78;;;14.20;69.70;;;;;;5076945;28;20024;-75
2021/11/08 13:16:07;;;;;;;20.10;4.40;;;14.80;69.40;;;;;;5063100;28;20032;-76
2021/11/08 13:18:42;;;;;;;17.85;4.70;;;15.30;68.00;;;;;;5064421;28;20104;-75
2021/11/08 13:21:10;;;;;;;16.67;4.55;;;15.30;66.80;;;;;;5062268;28;20115;-75
2021/11/08 13:23:39;;;;;;;15.15;3.58;;;15.40;66.50;;;;;;5084608;28;20033;-75
2021/11/08 13:26:06;;;;;;;10.90;3.55;;;15.60;66.30;;;;;;5098359;28;20048;-74
2021/11/08 13:28:35;;;;;;;13.98;3.28;;;15.70;66.30;;;;;;5090434;28;20361;-74
2021/11/08 13:31:07;;;;;;;16.05;3.88;;;15.90;65.40;;;;;;5062719;28;20036;-74
2021/11/08 13:33:42;;;;;;;15.43;3.58;;;15.90;65.00;;;;;;5071238;28;20032;-74
2021/11/08 13:36:11;;;;;;;15.02;3.40;;;15.80;63.90;;;;;;5090670;28;20192;-71
2021/11/08 13:38:39;;;;;;;18.95;4.00;;;15.40;64.90;;;;;;5061833;28;20028;-77
2021/11/08 13:41:16;;;;;;;15.75;4.22;;;15.10;66.00;;;;;;5069471;28;20564;-74
2021/11/08 13:43:48;;;;;;;13.95;3.80;;;14.90;66.80;;;;;;5070176;28;20537;-72
2021/11/08 13:46:23;;;;;;;17.25;4.55;;;14.70;67.30;;;;;;5064586;28;20089;-73
2021/11/08 13:48:54;;;;;;;15.55;3.33;;;14.60;67.70;;;;;;5062409;28;20483;-76
2021/11/08 13:51:20;;;;;;;16.40;3.70;;;14.50;68.30;;;;;;5069968;28;20017;-77
2021/11/08 13:53:50;;;;;;;17.13;3.78;;;14.30;68.20;;;;;;5069188;28;20796;-77
2021/11/08 13:56:17;;;;;;;16.23;3.38;;;14.30;69.10;;;;;;5070955;28;20036;-72
2021/11/08 13:58:52;;;;;;;16.27;4.25;;;14.40;69.30;;;;;;5066238;28;20047;-74
2021/11/08 14:01:27;;;;;;;15.25;3.67;;;14.50;68.60;;;;;;5070593;28;20028;-72
2021/11/08 14:03:53;;;;;;;12.85;3.58;;;14.60;68.20;;;;;;5101637;28;20116;-71
2021/11/08 14:06:37;;;;;;;16.10;3.60;;;14.50;68.30;;;;;;5066274;28;20086;-73
2021/11/08 14:09:07;;;;;;;20.10;3.97;;;14.40;68.40;;;;;;5067648;28;20043;-73
2021/11/08 14:11:35;;;;;;;14.27;3.65;;;14.30;69.20;;;;;;5065827;28;20025;-71
2021/11/08 14:14:09;;;;;;;13.00;3.20;;;14.20;69.60;;;;;;5069998;28;20032;-72
2021/11/08 14:16:37;;;;;;;14.73;4.07;;;14.20;69.80;;;;;;5053977;28;20059;-72
2021/11/08 14:19:04;;;;;;;15.00;3.63;;;14.10;70.20;;;;;;5048317;28;20025;-77
2021/11/08 14:21:31;;;;;;;19.85;4.38;;;14.10;69.80;;;;;;5087940;28;20121;-76
2021/11/08 14:24:10;;;;;;;21.98;4.00;;;14.00;69.80;;;;;;5059212;28;20040;-77
2021/11/08 14:26:37;;;;;;;15.45;3.67;;;13.90;70.00;;;;;;5066918;28;20610;-77
2021/11/08 14:29:31;;;;;;;16.48;3.40;;;13.80;70.80;;;;;;5077361;28;20059;-78
2021/11/08 14:32:01;;;;;;;19.20;3.65;;;13.80;71.00;;;;;;5068761;28;20127;-76
2021/11/08 14:34:30;;;;;;;20.27;4.22;;;13.70;71.20;;;;;;5089058;28;20370;-77
2021/11/08 14:36:57;;;;;;;20.58;4.03;;;13.70;71.30;;;;;;5086300;28;20028;-77
2021/11/08 14:39:26;;;;;;;18.27;3.67;;;13.60;71.80;;;;;;5069656;28;20079;-77
2021/11/08 14:42:06;;;;;;;13.60;3.35;;;13.60;71.90;;;;;;5070590;28;20536;-77
2021/11/08 14:44:37;;;;;;;17.65;3.72;;;13.50;72.20;;;;;;5070608;28;20067;-76
2021/11/08 14:47:19;;;;;;;16.55;4.15;;;13.50;72.20;;;;;;5070918;28;20682;-77
2021/11/08 14:49:55;;;;;;;17.40;4.05;;;13.40;72.20;;;;;;5068606;28;20046;-76
2021/11/08 14:52:38;;;;;;;20.90;4.15;;;13.40;72.40;;;;;;5071052;28;20494;-77
2021/11/08 14:55:27;;;;;;;16.50;3.40;;;13.40;72.30;;;;;;5088879;28;20063;-76
2021/11/08 14:57:56;;;;;;;21.08;3.83;;;13.30;72.40;;;;;;5083975;28;20050;-76